sensor_id;sensor_type;location;lat;lon;timestamp;temperature;humidity
44823;DHT22;51097;51.984;5.650;2023-09-19T00:01:12;18.60;99.90
44823;DHT22;51097;51.984;5.650;2023-09-19T00:03:39;18.70;99.90
44823;DHT22;51097;51.984;5.650;2023-09-19T00:06:07;18.60;99.90
44823;DHT22;51097;51.984;5.650;2023-09-19T00:08:36;18.60;99.90
44823;DHT22;51097;51.984;5.650;2023-09-19T00:11:02;18.60;99.90
44823;DHT22;51097;51.984;5.650;2023-09-19T00:13:34;18.50;99.90
44823;DHT22;51097;51.984;5.650;2023-09-19T00:16:01;18.60;99.90
44823;DHT22;51097;51.984;5.650;2023-09-19T00:18:27;18.70;99.90
44823;DHT22;51097;51.984;5.650;2023-09-19T00:20:58;18.60;99.90
44823;DHT22;51097;51.984;5.650;2023-09-19T00:23:24;18.60;99.90
44823;DHT22;51097;51.984;5.650;2023-09-19T00:25:50;18.60;99.90
44823;DHT22;51097;51.984;5.650;2023-09-19T00:28:16;18.60;99.90
44823;DHT22;51097;51.984;5.650;2023-09-19T00:30:44;18.60;99.90
44823;DHT22;51097;51.984;5.650;2023-09-19T00:33:09;18.60;99.90
44823;DHT22;51097;51.984;5.650;2023-09-19T00:35:37;18.60;99.90
44823;DHT22;51097;51.984;5.650;2023-09-19T00:38:02;18.60;99.90
44823;DHT22;51097;51.984;5.650;2023-09-19T00:40:29;18.60;99.90
44823;DHT22;51097;51.984;5.650;2023-09-19T00:42:57;18.70;99.90
44823;DHT22;51097;51.984;5.650;2023-09-19T00:45:27;18.70;99.90
44823;DHT22;51097;51.984;5.650;2023-09-19T00:47:53;18.70;99.90
44823;DHT22;51097;51.984;5.650;2023-09-19T00:50:22;18.60;99.90
44823;DHT22;51097;51.984;5.650;2023-09-19T00:52:54;18.60;99.90
44823;DHT22;51097;51.984;5.650;2023-09-19T00:55:21;18.60;99.90
44823;DHT22;51097;51.984;5.650;2023-09-19T00:57:48;18.60;99.90
44823;DHT22;51097;51.984;5.650;2023-09-19T01:00:17;18.70;99.90
44823;DHT22;51097;51.984;5.650;2023-09-19T01:02:45;18.70;99.90
44823;DHT22;51097;51.984;5.650;2023-09-19T01:05:12;18.80;99.90
44823;DHT22;51097;51.984;5.650;2023-09-19T01:07:38;18.80;99.90
44823;DHT22;51097;51.984;5.650;2023-09-19T01:10:09;18.70;99.90
44823;DHT22;51097;51.984;5.650;2023-09-19T01:15:32;18.70;99.90
44823;DHT22;51097;51.984;5.650;2023-09-19T01:29:35;18.70;99.90
44823;DHT22;51097;51.984;5.650;2023-09-19T01:32:05;18.70;99.90
44823;DHT22;51097;51.984;5.650;2023-09-19T01:34:49;18.70;99.90
44823;DHT22;51097;51.984;5.650;2023-09-19T01:37:16;18.60;99.90
44823;DHT22;51097;51.984;5.650;2023-09-19T01:39:47;18.70;99.90
44823;DHT22;51097;51.984;5.650;2023-09-19T01:45:46;18.60;99.90
44823;DHT22;51097;51.984;5.650;2023-09-19T01:51:10;18.60;99.90
44823;DHT22;51097;51.984;5.650;2023-09-19T01:56:08;18.50;99.90
44823;DHT22;51097;51.984;5.650;2023-09-19T01:58:41;18.50;99.90
44823;DHT22;51097;51.984;5.650;2023-09-19T02:01:10;18.70;99.90
44823;DHT22;51097;51.984;5.650;2023-09-19T02:03:39;18.40;99.90
44823;DHT22;51097;51.984;5.650;2023-09-19T02:06:05;18.60;99.90
44823;DHT22;51097;51.984;5.650;2023-09-19T02:08:31;18.60;99.90
44823;DHT22;51097;51.984;5.650;2023-09-19T02:10:58;18.40;99.90
44823;DHT22;51097;51.984;5.650;2023-09-19T02:13:25;18.30;99.90
44823;DHT22;51097;51.984;5.650;2023-09-19T02:15:53;18.30;99.90
44823;DHT22;51097;51.984;5.650;2023-09-19T02:18:19;18.20;99.90
44823;DHT22;51097;51.984;5.650;2023-09-19T02:20:45;18.10;99.90
44823;DHT22;51097;51.984;5.650;2023-09-19T02:23:12;18.10;99.90
44823;DHT22;51097;51.984;5.650;2023-09-19T02:25:38;18.20;99.90
44823;DHT22;51097;51.984;5.650;2023-09-19T02:28:05;18.20;99.90
44823;DHT22;51097;51.984;5.650;2023-09-19T02:30:32;18.00;99.90
44823;DHT22;51097;51.984;5.650;2023-09-19T02:32:58;18.00;99.90
44823;DHT22;51097;51.984;5.650;2023-09-19T02:35:26;18.00;99.90
44823;DHT22;51097;51.984;5.650;2023-09-19T02:37:53;17.90;99.90
44823;DHT22;51097;51.984;5.650;2023-09-19T02:40:19;17.90;99.90
44823;DHT22;51097;51.984;5.650;2023-09-19T02:42:48;17.90;99.90
44823;DHT22;51097;51.984;5.650;2023-09-19T02:45:16;17.90;99.90
44823;DHT22;51097;51.984;5.650;2023-09-19T02:47:44;17.80;99.90
44823;DHT22;51097;51.984;5.650;2023-09-19T02:50:10;17.60;99.90
44823;DHT22;51097;51.984;5.650;2023-09-19T02:52:36;17.80;99.90
44823;DHT22;51097;51.984;5.650;2023-09-19T02:55:02;17.60;99.90
44823;DHT22;51097;51.984;5.650;2023-09-19T02:57:29;17.60;99.90
44823;DHT22;51097;51.984;5.650;2023-09-19T02:59:58;17.60;99.90
44823;DHT22;51097;51.984;5.650;2023-09-19T03:02:25;17.60;99.90
44823;DHT22;51097;51.984;5.650;2023-09-19T03:04:53;17.40;99.90
44823;DHT22;51097;51.984;5.650;2023-09-19T03:07:18;17.60;99.90
44823;DHT22;51097;51.984;5.650;2023-09-19T03:09:44;17.50;99.90
44823;DHT22;51097;51.984;5.650;2023-09-19T03:12:10;17.50;99.90
44823;DHT22;51097;51.984;5.650;2023-09-19T03:14:36;17.50;99.90
44823;DHT22;51097;51.984;5.650;2023-09-19T03:17:02;17.30;99.90
44823;DHT22;51097;51.984;5.650;2023-09-19T03:19:31;17.40;99.90
44823;DHT22;51097;51.984;5.650;2023-09-19T03:21:59;17.40;99.90
44823;DHT22;51097;51.984;5.650;2023-09-19T03:24:24;17.40;99.90
44823;DHT22;51097;51.984;5.650;2023-09-19T03:26:50;17.20;99.90
44823;DHT22;51097;51.984;5.650;2023-09-19T03:29:16;17.10;99.90
44823;DHT22;51097;51.984;5.650;2023-09-19T03:31:42;17.20;99.90
44823;DHT22;51097;51.984;5.650;2023-09-19T03:34:08;17.10;99.90
44823;DHT22;51097;51.984;5.650;2023-09-19T03:36:34;17.30;99.90
44823;DHT22;51097;51.984;5.650;2023-09-19T03:39:00;17.20;99.90
44823;DHT22;51097;51.984;5.650;2023-09-19T03:41:26;17.20;99.90
44823;DHT22;51097;51.984;5.650;2023-09-19T03:43:51;17.10;99.90
44823;DHT22;51097;51.984;5.650;2023-09-19T03:46:17;17.30;99.90
44823;DHT22;51097;51.984;5.650;2023-09-19T03:48:43;17.10;99.90
44823;DHT22;51097;51.984;5.650;2023-09-19T03:51:08;17.10;99.90
44823;DHT22;51097;51.984;5.650;2023-09-19T03:53:34;17.10;99.90
44823;DHT22;51097;51.984;5.650;2023-09-19T03:56:00;17.10;99.90
44823;DHT22;51097;51.984;5.650;2023-09-19T03:58:25;17.10;99.90
44823;DHT22;51097;51.984;5.650;2023-09-19T04:00:55;17.00;99.90
44823;DHT22;51097;51.984;5.650;2023-09-19T04:03:21;17.10;99.90
44823;DHT22;51097;51.984;5.650;2023-09-19T04:05:47;17.00;99.90
44823;DHT22;51097;51.984;5.650;2023-09-19T04:08:15;17.10;99.90
44823;DHT22;51097;51.984;5.650;2023-09-19T04:10:44;17.00;99.90
44823;DHT22;51097;51.984;5.650;2023-09-19T04:13:11;16.90;99.90
44823;DHT22;51097;51.984;5.650;2023-09-19T04:15:36;16.90;99.90
44823;DHT22;51097;51.984;5.650;2023-09-19T04:18:03;16.80;99.90
44823;DHT22;51097;51.984;5.650;2023-09-19T04:20:29;16.80;99.90
44823;DHT22;51097;51.984;5.650;2023-09-19T04:22:54;16.80;99.90
44823;DHT22;51097;51.984;5.650;2023-09-19T04:25:21;16.70;99.90
44823;DHT22;51097;51.984;5.650;2023-09-19T04:27:46;16.80;99.90
44823;DHT22;51097;51.984;5.650;2023-09-19T04:30:13;16.80;99.90
44823;DHT22;51097;51.984;5.650;2023-09-19T04:32:40;16.90;99.90
44823;DHT22;51097;51.984;5.650;2023-09-19T04:35:07;16.80;99.90
44823;DHT22;51097;51.984;5.650;2023-09-19T04:37:36;16.90;99.90
44823;DHT22;51097;51.984;5.650;2023-09-19T04:40:03;16.80;99.90
44823;DHT22;51097;51.984;5.650;2023-09-19T04:42:31;16.80;99.90
44823;DHT22;51097;51.984;5.650;2023-09-19T04:44:57;16.80;99.90
44823;DHT22;51097;51.984;5.650;2023-09-19T04:47:22;16.80;99.90
44823;DHT22;51097;51.984;5.650;2023-09-19T04:49:48;16.80;99.90
44823;DHT22;51097;51.984;5.650;2023-09-19T04:52:13;16.90;99.90
44823;DHT22;51097;51.984;5.650;2023-09-19T04:54:40;16.90;99.90
44823;DHT22;51097;51.984;5.650;2023-09-19T04:57:06;16.90;99.90
44823;DHT22;51097;51.984;5.650;2023-09-19T04:59:32;16.80;99.90
44823;DHT22;51097;51.984;5.650;2023-09-19T05:01:58;16.60;99.90
44823;DHT22;51097;51.984;5.650;2023-09-19T05:04:24;16.80;99.90
44823;DHT22;51097;51.984;5.650;2023-09-19T05:06:49;16.80;99.90
44823;DHT22;51097;51.984;5.650;2023-09-19T05:09:16;16.70;99.90
44823;DHT22;51097;51.984;5.650;2023-09-19T05:11:46;16.90;99.90
44823;DHT22;51097;51.984;5.650;2023-09-19T05:14:12;16.90;99.90
44823;DHT22;51097;51.984;5.650;2023-09-19T05:16:37;16.70;99.90
44823;DHT22;51097;51.984;5.650;2023-09-19T05:19:03;16.60;99.90
44823;DHT22;51097;51.984;5.650;2023-09-19T05:21:30;16.70;99.90
44823;DHT22;51097;51.984;5.650;2023-09-19T05:23:56;16.80;99.90
44823;DHT22;51097;51.984;5.650;2023-09-19T05:26:22;16.80;99.90
44823;DHT22;51097;51.984;5.650;2023-09-19T05:28:47;16.90;99.90
44823;DHT22;51097;51.984;5.650;2023-09-19T05:31:13;17.00;99.90
44823;DHT22;51097;51.984;5.650;2023-09-19T05:33:39;17.00;99.90
44823;DHT22;51097;51.984;5.650;2023-09-19T05:36:05;17.00;99.90
44823;DHT22;51097;51.984;5.650;2023-09-19T05:38:30;16.90;99.90
44823;DHT22;51097;51.984;5.650;2023-09-19T05:40:58;16.90;99.90
44823;DHT22;51097;51.984;5.650;2023-09-19T05:43:23;16.90;99.90
44823;DHT22;51097;51.984;5.650;2023-09-19T05:45:49;17.00;99.90
44823;DHT22;51097;51.984;5.650;2023-09-19T05:48:17;17.00;99.90
44823;DHT22;51097;51.984;5.650;2023-09-19T05:50:43;16.90;99.90
44823;DHT22;51097;51.984;5.650;2023-09-19T05:53:10;17.00;99.90
44823;DHT22;51097;51.984;5.650;2023-09-19T05:55:40;17.00;99.90
44823;DHT22;51097;51.984;5.650;2023-09-19T05:58:06;17.10;99.90
44823;DHT22;51097;51.984;5.650;2023-09-19T06:00:31;17.20;99.90
44823;DHT22;51097;51.984;5.650;2023-09-19T06:02:58;17.20;99.90
44823;DHT22;51097;51.984;5.650;2023-09-19T06:05:25;17.20;99.90
44823;DHT22;51097;51.984;5.650;2023-09-19T06:07:52;17.20;99.90
44823;DHT22;51097;51.984;5.650;2023-09-19T06:10:18;17.20;99.90
44823;DHT22;51097;51.984;5.650;2023-09-19T06:12:43;17.20;99.90
44823;DHT22;51097;51.984;5.650;2023-09-19T06:15:10;17.20;99.90
44823;DHT22;51097;51.984;5.650;2023-09-19T06:17:41;17.10;99.90
44823;DHT22;51097;51.984;5.650;2023-09-19T06:20:07;17.10;99.90
44823;DHT22;51097;51.984;5.650;2023-09-19T06:22:41;17.10;99.90
44823;DHT22;51097;51.984;5.650;2023-09-19T06:25:07;17.20;99.90
44823;DHT22;51097;51.984;5.650;2023-09-19T06:27:33;17.30;99.90
44823;DHT22;51097;51.984;5.650;2023-09-19T06:30:01;17.40;99.90
44823;DHT22;51097;51.984;5.650;2023-09-19T06:32:27;17.40;99.90
44823;DHT22;51097;51.984;5.650;2023-09-19T06:34:54;17.40;99.90
44823;DHT22;51097;51.984;5.650;2023-09-19T06:37:20;17.40;99.90
44823;DHT22;51097;51.984;5.650;2023-09-19T06:39:46;17.50;99.90
44823;DHT22;51097;51.984;5.650;2023-09-19T06:42:15;17.40;99.90
44823;DHT22;51097;51.984;5.650;2023-09-19T06:44:43;17.70;99.90
44823;DHT22;51097;51.984;5.650;2023-09-19T06:47:08;17.50;99.90
44823;DHT22;51097;51.984;5.650;2023-09-19T06:49:35;17.50;99.90
44823;DHT22;51097;51.984;5.650;2023-09-19T06:52:01;17.60;99.90
44823;DHT22;51097;51.984;5.650;2023-09-19T06:54:27;17.70;99.90
44823;DHT22;51097;51.984;5.650;2023-09-19T06:56:56;17.70;99.90
44823;DHT22;51097;51.984;5.650;2023-09-19T06:59:24;17.90;99.90
44823;DHT22;51097;51.984;5.650;2023-09-19T07:01:49;17.90;99.90
44823;DHT22;51097;51.984;5.650;2023-09-19T07:04:16;17.90;99.90
44823;DHT22;51097;51.984;5.650;2023-09-19T07:06:42;17.90;99.90
44823;DHT22;51097;51.984;5.650;2023-09-19T07:09:08;17.90;99.90
44823;DHT22;51097;51.984;5.650;2023-09-19T07:11:34;18.00;99.90
44823;DHT22;51097;51.984;5.650;2023-09-19T07:13:59;18.00;99.90
44823;DHT22;51097;51.984;5.650;2023-09-19T07:16:28;18.10;99.90
44823;DHT22;51097;51.984;5.650;2023-09-19T07:18:56;18.10;99.90
44823;DHT22;51097;51.984;5.650;2023-09-19T07:21:22;18.00;99.90
44823;DHT22;51097;51.984;5.650;2023-09-19T07:23:48;18.10;99.90
44823;DHT22;51097;51.984;5.650;2023-09-19T07:26:15;18.10;99.90
44823;DHT22;51097;51.984;5.650;2023-09-19T07:28:40;18.20;99.90
44823;DHT22;51097;51.984;5.650;2023-09-19T07:31:06;18.10;99.90
44823;DHT22;51097;51.984;5.650;2023-09-19T07:33:35;18.30;99.90
44823;DHT22;51097;51.984;5.650;2023-09-19T07:36:01;18.40;99.90
44823;DHT22;51097;51.984;5.650;2023-09-19T07:38:27;18.50;99.90
44823;DHT22;51097;51.984;5.650;2023-09-19T07:40:52;18.50;99.90
44823;DHT22;51097;51.984;5.650;2023-09-19T07:43:18;18.50;99.90
44823;DHT22;51097;51.984;5.650;2023-09-19T07:45:44;18.60;99.90
44823;DHT22;51097;51.984;5.650;2023-09-19T07:48:09;18.70;99.90
44823;DHT22;51097;51.984;5.650;2023-09-19T07:50:40;18.60;99.90
44823;DHT22;51097;51.984;5.650;2023-09-19T07:53:09;18.60;99.90
44823;DHT22;51097;51.984;5.650;2023-09-19T07:55:34;18.60;99.90
44823;DHT22;51097;51.984;5.650;2023-09-19T07:58:00;18.60;99.90
44823;DHT22;51097;51.984;5.650;2023-09-19T08:00:26;18.70;99.90
44823;DHT22;51097;51.984;5.650;2023-09-19T08:02:51;18.70;99.90
44823;DHT22;51097;51.984;5.650;2023-09-19T08:05:18;18.70;99.90
44823;DHT22;51097;51.984;5.650;2023-09-19T08:07:46;18.90;99.90
44823;DHT22;51097;51.984;5.650;2023-09-19T08:10:15;18.90;99.90
44823;DHT22;51097;51.984;5.650;2023-09-19T08:12:45;18.90;99.90
44823;DHT22;51097;51.984;5.650;2023-09-19T08:15:18;19.20;99.90
44823;DHT22;51097;51.984;5.650;2023-09-19T08:17:47;19.10;99.90
44823;DHT22;51097;51.984;5.650;2023-09-19T08:20:14;19.10;99.90
44823;DHT22;51097;51.984;5.650;2023-09-19T08:22:51;19.20;99.90
44823;DHT22;51097;51.984;5.650;2023-09-19T08:25:18;19.30;99.90
44823;DHT22;51097;51.984;5.650;2023-09-19T08:27:48;19.40;99.90
44823;DHT22;51097;51.984;5.650;2023-09-19T08:30:19;19.50;99.90
44823;DHT22;51097;51.984;5.650;2023-09-19T08:32:45;19.40;99.90
44823;DHT22;51097;51.984;5.650;2023-09-19T08:35:14;19.60;99.90
44823;DHT22;51097;51.984;5.650;2023-09-19T08:37:39;19.70;99.90
44823;DHT22;51097;51.984;5.650;2023-09-19T08:40:05;19.70;99.90
44823;DHT22;51097;51.984;5.650;2023-09-19T08:42:50;19.80;99.90
44823;DHT22;51097;51.984;5.650;2023-09-19T08:45:17;19.90;99.90
44823;DHT22;51097;51.984;5.650;2023-09-19T08:47:50;19.70;99.90
44823;DHT22;51097;51.984;5.650;2023-09-19T08:50:28;19.70;99.90
44823;DHT22;51097;51.984;5.650;2023-09-19T08:52:56;19.90;99.90
44823;DHT22;51097;51.984;5.650;2023-09-19T08:55:29;19.90;99.90
44823;DHT22;51097;51.984;5.650;2023-09-19T08:58:03;19.80;99.90
44823;DHT22;51097;51.984;5.650;2023-09-19T09:00:30;20.00;99.90
44823;DHT22;51097;51.984;5.650;2023-09-19T09:02:57;20.10;99.90
44823;DHT22;51097;51.984;5.650;2023-09-19T09:05:24;20.10;99.90
44823;DHT22;51097;51.984;5.650;2023-09-19T09:07:50;20.20;99.90
44823;DHT22;51097;51.984;5.650;2023-09-19T09:10:20;20.10;99.90
44823;DHT22;51097;51.984;5.650;2023-09-19T09:12:52;20.20;99.90
44823;DHT22;51097;51.984;5.650;2023-09-19T09:15:22;20.20;99.90
44823;DHT22;51097;51.984;5.650;2023-09-19T09:17:50;20.30;99.90
44823;DHT22;51097;51.984;5.650;2023-09-19T09:20:16;20.30;99.90
44823;DHT22;51097;51.984;5.650;2023-09-19T09:22:53;20.30;99.90
44823;DHT22;51097;51.984;5.650;2023-09-19T09:25:19;20.60;99.90
44823;DHT22;51097;51.984;5.650;2023-09-19T09:27:59;20.80;99.90
44823;DHT22;51097;51.984;5.650;2023-09-19T09:30:35;21.00;99.90
44823;DHT22;51097;51.984;5.650;2023-09-19T09:33:09;21.10;99.90
44823;DHT22;51097;51.984;5.650;2023-09-19T09:36:00;21.20;99.90
44823;DHT22;51097;51.984;5.650;2023-09-19T09:38:28;21.30;99.90
44823;DHT22;51097;51.984;5.650;2023-09-19T09:40:59;21.20;99.90
44823;DHT22;51097;51.984;5.650;2023-09-19T09:43:39;21.30;99.90
44823;DHT22;51097;51.984;5.650;2023-09-19T09:46:16;21.40;99.90
44823;DHT22;51097;51.984;5.650;2023-09-19T09:51:49;21.30;99.90
44823;DHT22;51097;51.984;5.650;2023-09-19T09:54:24;21.20;99.90
44823;DHT22;51097;51.984;5.650;2023-09-19T09:56:56;21.30;99.90
44823;DHT22;51097;51.984;5.650;2023-09-19T09:59:58;21.20;99.90
44823;DHT22;51097;51.984;5.650;2023-09-19T10:02:40;21.40;99.90
44823;DHT22;51097;51.984;5.650;2023-09-19T10:07:44;21.60;99.90
44823;DHT22;51097;51.984;5.650;2023-09-19T10:12:55;21.70;99.90
44823;DHT22;51097;51.984;5.650;2023-09-19T10:15:32;21.80;99.90
44823;DHT22;51097;51.984;5.650;2023-09-19T10:18:00;21.90;99.90
44823;DHT22;51097;51.984;5.650;2023-09-19T10:20:28;22.10;99.90
44823;DHT22;51097;51.984;5.650;2023-09-19T10:23:10;22.00;99.90
44823;DHT22;51097;51.984;5.650;2023-09-19T10:25:41;22.10;99.90
44823;DHT22;51097;51.984;5.650;2023-09-19T10:28:09;22.20;99.90
44823;DHT22;51097;51.984;5.650;2023-09-19T10:30:41;22.20;99.90
44823;DHT22;51097;51.984;5.650;2023-09-19T10:33:11;22.30;99.90
44823;DHT22;51097;51.984;5.650;2023-09-19T10:35:45;22.40;99.90
44823;DHT22;51097;51.984;5.650;2023-09-19T10:38:13;22.50;99.90
44823;DHT22;51097;51.984;5.650;2023-09-19T10:40:39;22.50;99.90
44823;DHT22;51097;51.984;5.650;2023-09-19T10:43:19;22.50;99.90
44823;DHT22;51097;51.984;5.650;2023-09-19T10:45:47;22.70;99.90
44823;DHT22;51097;51.984;5.650;2023-09-19T10:48:16;22.50;99.90
44823;DHT22;51097;51.984;5.650;2023-09-19T10:50:57;22.50;99.90
44823;DHT22;51097;51.984;5.650;2023-09-19T10:53:26;22.60;99.90
44823;DHT22;51097;51.984;5.650;2023-09-19T10:55:56;22.70;99.90
44823;DHT22;51097;51.984;5.650;2023-09-19T11:00:56;23.00;99.90
44823;DHT22;51097;51.984;5.650;2023-09-19T11:03:23;23.20;99.90
44823;DHT22;51097;51.984;5.650;2023-09-19T11:06:20;23.20;99.90
44823;DHT22;51097;51.984;5.650;2023-09-19T11:09:02;23.20;99.90
44823;DHT22;51097;51.984;5.650;2023-09-19T11:11:49;23.30;99.90
44823;DHT22;51097;51.984;5.650;2023-09-19T11:30:31;23.40;99.90
44823;DHT22;51097;51.984;5.650;2023-09-19T11:33:17;23.50;99.90
44823;DHT22;51097;51.984;5.650;2023-09-19T11:36:04;23.50;99.90
44823;DHT22;51097;51.984;5.650;2023-09-19T11:43:46;23.60;99.90
44823;DHT22;51097;51.984;5.650;2023-09-19T11:46:12;23.80;99.90
44823;DHT22;51097;51.984;5.650;2023-09-19T11:48:42;23.80;99.90
44823;DHT22;51097;51.984;5.650;2023-09-19T11:51:27;24.00;99.90
44823;DHT22;51097;51.984;5.650;2023-09-19T11:53:57;24.20;99.90
44823;DHT22;51097;51.984;5.650;2023-09-19T11:56:27;24.00;99.90
44823;DHT22;51097;51.984;5.650;2023-09-19T11:58:57;23.90;99.90
44823;DHT22;51097;51.984;5.650;2023-09-19T12:01:32;24.10;99.90
44823;DHT22;51097;51.984;5.650;2023-09-19T12:04:01;24.00;99.90
44823;DHT22;51097;51.984;5.650;2023-09-19T12:06:28;24.10;99.90
44823;DHT22;51097;51.984;5.650;2023-09-19T12:08:55;24.20;99.90
44823;DHT22;51097;51.984;5.650;2023-09-19T12:11:23;24.30;99.90
44823;DHT22;51097;51.984;5.650;2023-09-19T12:13:49;24.30;99.90
44823;DHT22;51097;51.984;5.650;2023-09-19T12:16:19;24.30;99.90
44823;DHT22;51097;51.984;5.650;2023-09-19T12:18:49;24.20;99.90
44823;DHT22;51097;51.984;5.650;2023-09-19T12:21:31;24.00;99.90
44823;DHT22;51097;51.984;5.650;2023-09-19T12:24:13;24.10;99.90
44823;DHT22;51097;51.984;5.650;2023-09-19T12:26:43;24.20;99.90
44823;DHT22;51097;51.984;5.650;2023-09-19T12:29:18;24.20;99.90
44823;DHT22;51097;51.984;5.650;2023-09-19T12:31:51;24.10;99.90
44823;DHT22;51097;51.984;5.650;2023-09-19T12:34:21;24.00;99.90
44823;DHT22;51097;51.984;5.650;2023-09-19T12:36:47;24.10;99.90
44823;DHT22;51097;51.984;5.650;2023-09-19T12:39:24;23.70;99.90
44823;DHT22;51097;51.984;5.650;2023-09-19T12:41:51;23.70;99.90
44823;DHT22;51097;51.984;5.650;2023-09-19T12:44:18;23.50;99.90
44823;DHT22;51097;51.984;5.650;2023-09-19T12:46:44;23.40;99.90
44823;DHT22;51097;51.984;5.650;2023-09-19T12:49:17;23.40;99.90
44823;DHT22;51097;51.984;5.650;2023-09-19T12:51:45;23.40;99.90
44823;DHT22;51097;51.984;5.650;2023-09-19T12:54:11;23.40;99.90
44823;DHT22;51097;51.984;5.650;2023-09-19T12:56:40;23.50;99.90
44823;DHT22;51097;51.984;5.650;2023-09-19T12:59:12;23.50;99.90
44823;DHT22;51097;51.984;5.650;2023-09-19T13:01:39;23.50;99.90
44823;DHT22;51097;51.984;5.650;2023-09-19T13:04:19;23.40;99.90
44823;DHT22;51097;51.984;5.650;2023-09-19T13:06:46;23.20;99.90
44823;DHT22;51097;51.984;5.650;2023-09-19T13:09:15;23.20;99.90
44823;DHT22;51097;51.984;5.650;2023-09-19T13:11:41;23.20;99.90
44823;DHT22;51097;51.984;5.650;2023-09-19T13:14:26;23.10;99.90
44823;DHT22;51097;51.984;5.650;2023-09-19T13:17:06;23.00;99.90
44823;DHT22;51097;51.984;5.650;2023-09-19T13:19:43;22.90;99.90
44823;DHT22;51097;51.984;5.650;2023-09-19T13:22:39;22.90;99.90
44823;DHT22;51097;51.984;5.650;2023-09-19T13:25:12;22.90;99.90
44823;DHT22;51097;51.984;5.650;2023-09-19T13:27:44;22.80;99.90
44823;DHT22;51097;51.984;5.650;2023-09-19T13:30:11;22.70;99.90
44823;DHT22;51097;51.984;5.650;2023-09-19T13:32:36;22.70;99.90
44823;DHT22;51097;51.984;5.650;2023-09-19T13:35:04;22.70;99.90
44823;DHT22;51097;51.984;5.650;2023-09-19T13:37:33;22.90;99.90
44823;DHT22;51097;51.984;5.650;2023-09-19T13:40:00;22.90;99.90
44823;DHT22;51097;51.984;5.650;2023-09-19T13:42:25;23.00;99.90
44823;DHT22;51097;51.984;5.650;2023-09-19T13:44:55;23.00;99.90
44823;DHT22;51097;51.984;5.650;2023-09-19T13:47:21;23.00;99.90
44823;DHT22;51097;51.984;5.650;2023-09-19T13:49:50;22.80;99.90
44823;DHT22;51097;51.984;5.650;2023-09-19T13:52:19;22.80;99.90
44823;DHT22;51097;51.984;5.650;2023-09-19T13:54:44;22.80;99.90
44823;DHT22;51097;51.984;5.650;2023-09-19T13:57:10;22.90;99.90
44823;DHT22;51097;51.984;5.650;2023-09-19T13:59:35;22.90;99.90
44823;DHT22;51097;51.984;5.650;2023-09-19T14:02:02;22.90;99.90
44823;DHT22;51097;51.984;5.650;2023-09-19T14:04:31;22.80;99.90
44823;DHT22;51097;51.984;5.650;2023-09-19T14:06:57;22.90;99.90
44823;DHT22;51097;51.984;5.650;2023-09-19T14:09:23;23.00;99.90
44823;DHT22;51097;51.984;5.650;2023-09-19T14:11:50;23.10;99.90
44823;DHT22;51097;51.984;5.650;2023-09-19T14:14:21;23.20;99.90
44823;DHT22;51097;51.984;5.650;2023-09-19T14:16:50;23.40;99.90
44823;DHT22;51097;51.984;5.650;2023-09-19T14:19:17;23.50;99.90
44823;DHT22;51097;51.984;5.650;2023-09-19T14:21:43;23.60;99.90
44823;DHT22;51097;51.984;5.650;2023-09-19T14:24:09;23.50;99.90
44823;DHT22;51097;51.984;5.650;2023-09-19T14:26:35;23.40;99.90
44823;DHT22;51097;51.984;5.650;2023-09-19T14:29:01;23.30;99.90
44823;DHT22;51097;51.984;5.650;2023-09-19T14:31:27;23.30;99.90
44823;DHT22;51097;51.984;5.650;2023-09-19T14:33:54;23.30;99.90
44823;DHT22;51097;51.984;5.650;2023-09-19T14:36:21;23.30;99.90
44823;DHT22;51097;51.984;5.650;2023-09-19T14:38:47;23.40;99.90
44823;DHT22;51097;51.984;5.650;2023-09-19T14:41:12;23.40;99.90
44823;DHT22;51097;51.984;5.650;2023-09-19T14:43:38;23.20;99.90
44823;DHT22;51097;51.984;5.650;2023-09-19T14:46:07;23.40;99.90
44823;DHT22;51097;51.984;5.650;2023-09-19T14:48:36;23.50;99.90
44823;DHT22;51097;51.984;5.650;2023-09-19T14:51:06;23.40;99.90
44823;DHT22;51097;51.984;5.650;2023-09-19T14:53:34;23.40;99.90
44823;DHT22;51097;51.984;5.650;2023-09-19T14:56:01;23.50;99.90
44823;DHT22;51097;51.984;5.650;2023-09-19T14:58:30;23.40;99.90
44823;DHT22;51097;51.984;5.650;2023-09-19T15:01:03;23.40;99.90
44823;DHT22;51097;51.984;5.650;2023-09-19T15:03:30;23.50;99.90
44823;DHT22;51097;51.984;5.650;2023-09-19T15:06:03;23.40;99.90
44823;DHT22;51097;51.984;5.650;2023-09-19T15:08:33;23.50;99.90
44823;DHT22;51097;51.984;5.650;2023-09-19T15:11:00;23.50;99.90
44823;DHT22;51097;51.984;5.650;2023-09-19T15:13:29;23.40;99.90
44823;DHT22;51097;51.984;5.650;2023-09-19T15:15:59;23.30;99.90
44823;DHT22;51097;51.984;5.650;2023-09-19T15:18:26;23.30;99.90
44823;DHT22;51097;51.984;5.650;2023-09-19T15:20:52;23.20;99.90
44823;DHT22;51097;51.984;5.650;2023-09-19T15:23:18;23.20;99.90
44823;DHT22;51097;51.984;5.650;2023-09-19T15:25:48;23.10;99.90
44823;DHT22;51097;51.984;5.650;2023-09-19T15:28:14;23.10;99.90
44823;DHT22;51097;51.984;5.650;2023-09-19T15:30:40;23.20;99.90
44823;DHT22;51097;51.984;5.650;2023-09-19T15:33:05;23.10;99.90
44823;DHT22;51097;51.984;5.650;2023-09-19T15:35:31;23.10;99.90
44823;DHT22;51097;51.984;5.650;2023-09-19T15:37:56;22.90;99.90
44823;DHT22;51097;51.984;5.650;2023-09-19T15:40:24;22.80;99.90
44823;DHT22;51097;51.984;5.650;2023-09-19T15:42:50;22.90;99.90
44823;DHT22;51097;51.984;5.650;2023-09-19T15:45:16;22.90;99.90
44823;DHT22;51097;51.984;5.650;2023-09-19T15:47:44;22.80;99.90
44823;DHT22;51097;51.984;5.650;2023-09-19T15:50:10;23.00;99.90
44823;DHT22;51097;51.984;5.650;2023-09-19T15:52:38;22.90;99.90
44823;DHT22;51097;51.984;5.650;2023-09-19T15:55:05;22.90;99.90
44823;DHT22;51097;51.984;5.650;2023-09-19T15:57:36;22.70;99.90
44823;DHT22;51097;51.984;5.650;2023-09-19T16:00:03;22.60;99.90
44823;DHT22;51097;51.984;5.650;2023-09-19T16:02:30;22.50;99.90
44823;DHT22;51097;51.984;5.650;2023-09-19T16:04:56;22.50;99.90
44823;DHT22;51097;51.984;5.650;2023-09-19T16:07:22;22.60;99.90
44823;DHT22;51097;51.984;5.650;2023-09-19T16:09:47;22.60;99.90
44823;DHT22;51097;51.984;5.650;2023-09-19T16:12:13;22.50;99.90
44823;DHT22;51097;51.984;5.650;2023-09-19T16:14:39;22.50;99.90
44823;DHT22;51097;51.984;5.650;2023-09-19T16:17:05;22.50;99.90
44823;DHT22;51097;51.984;5.650;2023-09-19T16:19:33;22.60;99.90
44823;DHT22;51097;51.984;5.650;2023-09-19T16:21:58;22.50;99.90
44823;DHT22;51097;51.984;5.650;2023-09-19T16:24:25;22.40;99.90
44823;DHT22;51097;51.984;5.650;2023-09-19T16:26:51;22.20;99.90
44823;DHT22;51097;51.984;5.650;2023-09-19T16:29:17;22.10;99.90
44823;DHT22;51097;51.984;5.650;2023-09-19T16:31:43;21.90;99.90
44823;DHT22;51097;51.984;5.650;2023-09-19T16:34:09;22.00;99.90